sensor_id;sensor_type;location;lat;lon;timestamp;pressure;altitude;pressure_sealevel;temperature;humidity
71938;BME280;59810;48.800;9.086;2022-12-18T00:01:58;98703.13;;;-8.20;76.01
71938;BME280;59810;48.800;9.086;2022-12-18T00:04:25;98702.16;;;-8.19;75.44
71938;BME280;59810;48.800;9.086;2022-12-18T00:06:51;98698.25;;;-8.37;76.28
71938;BME280;59810;48.800;9.086;2022-12-18T00:09:17;98705.06;;;-8.34;76.63
71938;BME280;59810;48.800;9.086;2022-12-18T00:11:43;98699.94;;;-8.36;76.04
71938;BME280;59810;48.800;9.086;2022-12-18T00:14:11;98709.09;;;-8.30;76.15
71938;BME280;59810;48.800;9.086;2022-12-18T00:16:37;98706.09;;;-8.37;75.81
71938;BME280;59810;48.800;9.086;2022-12-18T00:19:03;98707.69;;;-8.34;76.87
71938;BME280;59810;48.800;9.086;2022-12-18T00:21:30;98712.47;;;-8.28;76.83
71938;BME280;59810;48.800;9.086;2022-12-18T00:23:56;98699.25;;;-8.27;76.22
71938;BME280;59810;48.800;9.086;2022-12-18T00:26:28;98696.19;;;-8.21;75.44
71938;BME280;59810;48.800;9.086;2022-12-18T00:28:57;98698.88;;;-8.33;75.99
71938;BME280;59810;48.800;9.086;2022-12-18T00:31:28;98706.00;;;-8.35;76.29
71938;BME280;59810;48.800;9.086;2022-12-18T00:33:57;98709.47;;;-8.35;76.77
71938;BME280;59810;48.800;9.086;2022-12-18T00:36:25;98711.72;;;-8.30;77.00
71938;BME280;59810;48.800;9.086;2022-12-18T00:38:51;98716.00;;;-8.29;77.04
71938;BME280;59810;48.800;9.086;2022-12-18T00:41:17;98710.00;;;-8.42;77.41
71938;BME280;59810;48.800;9.086;2022-12-18T00:44:02;98715.75;;;-8.37;77.13
71938;BME280;59810;48.800;9.086;2022-12-18T00:46:28;98713.75;;;-8.34;77.06
71938;BME280;59810;48.800;9.086;2022-12-18T00:48:53;98713.50;;;-8.18;76.64
71938;BME280;59810;48.800;9.086;2022-12-18T00:51:19;98713.28;;;-8.28;76.81
71938;BME280;59810;48.800;9.086;2022-12-18T00:53:44;98710.13;;;-8.20;76.63
71938;BME280;59810;48.800;9.086;2022-12-18T00:56:15;98710.56;;;-8.26;75.95
71938;BME280;59810;48.800;9.086;2022-12-18T00:58:40;98719.38;;;-8.27;75.95
71938;BME280;59810;48.800;9.086;2022-12-18T01:01:05;98719.47;;;-8.29;76.22
71938;BME280;59810;48.800;9.086;2022-12-18T01:03:31;98706.16;;;-8.26;76.87
71938;BME280;59810;48.800;9.086;2022-12-18T01:05:56;98711.09;;;-8.21;79.05
71938;BME280;59810;48.800;9.086;2022-12-18T01:08:24;98704.19;;;-8.09;79.46
71938;BME280;59810;48.800;9.086;2022-12-18T01:10:50;98709.16;;;-7.94;80.25
71938;BME280;59810;48.800;9.086;2022-12-18T01:13:15;98710.41;;;-7.87;80.23
71938;BME280;59810;48.800;9.086;2022-12-18T01:15:48;98714.47;;;-7.82;80.04
71938;BME280;59810;48.800;9.086;2022-12-18T01:18:14;98706.09;;;-7.75;80.82
71938;BME280;59810;48.800;9.086;2022-12-18T01:20:39;98703.38;;;-7.73;81.25
71938;BME280;59810;48.800;9.086;2022-12-18T01:23:04;98711.63;;;-7.67;80.48
71938;BME280;59810;48.800;9.086;2022-12-18T01:25:30;98717.56;;;-7.52;82.58
71938;BME280;59810;48.800;9.086;2022-12-18T01:27:55;98720.47;;;-7.44;82.26
71938;BME280;59810;48.800;9.086;2022-12-18T01:30:20;98716.00;;;-7.31;81.36
71938;BME280;59810;48.800;9.086;2022-12-18T01:32:46;98705.78;;;-7.23;81.03
71938;BME280;59810;48.800;9.086;2022-12-18T01:35:11;98709.13;;;-7.21;80.64
71938;BME280;59810;48.800;9.086;2022-12-18T01:37:36;98713.56;;;-7.21;80.55
71938;BME280;59810;48.800;9.086;2022-12-18T01:40:02;98717.97;;;-7.22;80.73
71938;BME280;59810;48.800;9.086;2022-12-18T01:42:28;98716.50;;;-7.26;79.72
71938;BME280;59810;48.800;9.086;2022-12-18T01:47:44;98712.44;;;-7.30;78.11
71938;BME280;59810;48.800;9.086;2022-12-18T01:50:34;98713.13;;;-7.39;77.10
71938;BME280;59810;48.800;9.086;2022-12-18T01:55:59;98721.81;;;-7.38;77.88
71938;BME280;59810;48.800;9.086;2022-12-18T02:00:57;98706.00;;;-7.49;77.84
71938;BME280;59810;48.800;9.086;2022-12-18T02:03:22;98712.91;;;-7.48;78.05
71938;BME280;59810;48.800;9.086;2022-12-18T02:09:00;98703.09;;;-7.58;77.92
71938;BME280;59810;48.800;9.086;2022-12-18T02:16:51;98716.31;;;-7.59;78.13
71938;BME280;59810;48.800;9.086;2022-12-18T02:25:03;98717.13;;;-7.46;78.68
71938;BME280;59810;48.800;9.086;2022-12-18T02:27:32;98704.22;;;-7.49;78.46
71938;BME280;59810;48.800;9.086;2022-12-18T02:30:01;98713.34;;;-7.42;78.02
71938;BME280;59810;48.800;9.086;2022-12-18T02:32:35;98722.06;;;-7.54;78.22
71938;BME280;59810;48.800;9.086;2022-12-18T02:35:05;98727.97;;;-7.63;75.92
71938;BME280;59810;48.800;9.086;2022-12-18T02:37:32;98728.69;;;-7.61;76.86
71938;BME280;59810;48.800;9.086;2022-12-18T02:39:59;98722.22;;;-7.68;75.84
71938;BME280;59810;48.800;9.086;2022-12-18T02:42:26;98720.03;;;-7.74;75.99
71938;BME280;59810;48.800;9.086;2022-12-18T02:44:58;98732.44;;;-7.76;76.40
71938;BME280;59810;48.800;9.086;2022-12-18T02:47:32;98722.44;;;-7.71;76.19
71938;BME280;59810;48.800;9.086;2022-12-18T02:50:09;98728.53;;;-7.84;77.72
71938;BME280;59810;48.800;9.086;2022-12-18T02:53:10;98723.84;;;-7.78;76.92
71938;BME280;59810;48.800;9.086;2022-12-18T02:56:12;98736.00;;;-7.90;77.57
71938;BME280;59810;48.800;9.086;2022-12-18T03:01:35;98725.19;;;-7.73;77.91
71938;BME280;59810;48.800;9.086;2022-12-18T03:06:39;98718.03;;;-7.71;78.56
71938;BME280;59810;48.800;9.086;2022-12-18T03:09:15;98727.28;;;-7.78;77.70
71938;BME280;59810;48.800;9.086;2022-12-18T03:11:47;98738.50;;;-7.76;78.52
71938;BME280;59810;48.800;9.086;2022-12-18T03:14:53;98747.41;;;-7.78;77.94
71938;BME280;59810;48.800;9.086;2022-12-18T03:17:23;98750.34;;;-7.70;78.30
71938;BME280;59810;48.800;9.086;2022-12-18T03:19:51;98746.72;;;-7.57;78.27
71938;BME280;59810;48.800;9.086;2022-12-18T03:22:19;98751.34;;;-7.60;77.94
71938;BME280;59810;48.800;9.086;2022-12-18T03:24:48;98739.19;;;-7.61;78.01
71938;BME280;59810;48.800;9.086;2022-12-18T03:27:17;98740.13;;;-7.62;78.15
71938;BME280;59810;48.800;9.086;2022-12-18T03:30:07;98741.63;;;-7.71;77.19
71938;BME280;59810;48.800;9.086;2022-12-18T03:32:38;98748.44;;;-7.68;77.98
71938;BME280;59810;48.800;9.086;2022-12-18T03:35:07;98744.59;;;-7.75;77.34
71938;BME280;59810;48.800;9.086;2022-12-18T03:37:36;98754.13;;;-7.74;77.35
71938;BME280;59810;48.800;9.086;2022-12-18T03:40:03;98751.06;;;-7.81;77.07
71938;BME280;59810;48.800;9.086;2022-12-18T03:42:56;98744.91;;;-7.80;77.89
71938;BME280;59810;48.800;9.086;2022-12-18T03:45:26;98747.81;;;-7.85;78.04
71938;BME280;59810;48.800;9.086;2022-12-18T03:53:19;98751.81;;;-7.79;78.25
71938;BME280;59810;48.800;9.086;2022-12-18T03:55:49;98753.91;;;-7.84;78.19
71938;BME280;59810;48.800;9.086;2022-12-18T03:58:19;98745.75;;;-7.79;78.04
71938;BME280;59810;48.800;9.086;2022-12-18T04:00:47;98745.53;;;-7.76;78.04
71938;BME280;59810;48.800;9.086;2022-12-18T04:03:15;98742.38;;;-7.81;78.08
71938;BME280;59810;48.800;9.086;2022-12-18T04:05:43;98739.66;;;-7.80;77.56
71938;BME280;59810;48.800;9.086;2022-12-18T04:08:09;98747.09;;;-7.87;78.04
71938;BME280;59810;48.800;9.086;2022-12-18T04:10:37;98738.84;;;-7.80;77.40
71938;BME280;59810;48.800;9.086;2022-12-18T04:13:05;98742.06;;;-7.90;77.94
71938;BME280;59810;48.800;9.086;2022-12-18T04:15:36;98739.97;;;-7.85;78.00
71938;BME280;59810;48.800;9.086;2022-12-18T04:18:02;98734.44;;;-7.93;77.29
71938;BME280;59810;48.800;9.086;2022-12-18T04:20:28;98742.94;;;-8.02;77.50
71938;BME280;59810;48.800;9.086;2022-12-18T04:22:53;98749.75;;;-7.99;77.26
71938;BME280;59810;48.800;9.086;2022-12-18T04:25:21;98742.09;;;-8.02;77.87
71938;BME280;59810;48.800;9.086;2022-12-18T04:27:46;98749.53;;;-8.09;78.10
71938;BME280;59810;48.800;9.086;2022-12-18T04:30:12;98750.78;;;-8.02;77.53
71938;BME280;59810;48.800;9.086;2022-12-18T04:32:37;98760.84;;;-7.96;77.54
71938;BME280;59810;48.800;9.086;2022-12-18T04:35:03;98763.97;;;-7.91;76.77
71938;BME280;59810;48.800;9.086;2022-12-18T04:37:29;98757.06;;;-7.92;77.47
71938;BME280;59810;48.800;9.086;2022-12-18T04:39:57;98754.97;;;-7.99;77.88
71938;BME280;59810;48.800;9.086;2022-12-18T04:42:22;98759.09;;;-8.08;78.13
71938;BME280;59810;48.800;9.086;2022-12-18T04:44:47;98757.06;;;-8.17;77.65
71938;BME280;59810;48.800;9.086;2022-12-18T04:47:13;98740.41;;;-8.03;76.73
71938;BME280;59810;48.800;9.086;2022-12-18T04:49:38;98737.50;;;-8.11;77.55
71938;BME280;59810;48.800;9.086;2022-12-18T04:52:06;98728.59;;;-8.09;77.32
71938;BME280;59810;48.800;9.086;2022-12-18T04:54:32;98724.41;;;-8.11;77.85
71938;BME280;59810;48.800;9.086;2022-12-18T04:56:57;98714.66;;;-8.22;78.01
71938;BME280;59810;48.800;9.086;2022-12-18T04:59:22;98721.59;;;-8.47;78.13
71938;BME280;59810;48.800;9.086;2022-12-18T05:01:53;98730.72;;;-8.39;77.67
71938;BME280;59810;48.800;9.086;2022-12-18T05:04:18;98735.84;;;-8.38;77.00
71938;BME280;59810;48.800;9.086;2022-12-18T05:06:43;98726.75;;;-8.45;77.39
71938;BME280;59810;48.800;9.086;2022-12-18T05:09:09;98735.72;;;-8.49;77.26
71938;BME280;59810;48.800;9.086;2022-12-18T05:11:37;98728.06;;;-8.65;77.04
71938;BME280;59810;48.800;9.086;2022-12-18T05:14:03;98736.28;;;-8.84;79.00
71938;BME280;59810;48.800;9.086;2022-12-18T05:16:28;98743.56;;;-8.62;77.92
71938;BME280;59810;48.800;9.086;2022-12-18T05:18:53;98740.75;;;-8.59;77.55
71938;BME280;59810;48.800;9.086;2022-12-18T05:21:19;98740.94;;;-8.62;77.48
71938;BME280;59810;48.800;9.086;2022-12-18T05:23:44;98748.06;;;-8.64;77.26
71938;BME280;59810;48.800;9.086;2022-12-18T05:26:15;98755.72;;;-8.61;77.00
71938;BME280;59810;48.800;9.086;2022-12-18T05:28:40;98763.25;;;-8.69;77.17
71938;BME280;59810;48.800;9.086;2022-12-18T05:31:06;98760.09;;;-8.74;77.51
71938;BME280;59810;48.800;9.086;2022-12-18T05:33:33;98771.31;;;-8.72;77.26
71938;BME280;59810;48.800;9.086;2022-12-18T05:36:04;98775.06;;;-8.76;76.81
71938;BME280;59810;48.800;9.086;2022-12-18T05:38:32;98778.56;;;-8.90;76.99
71938;BME280;59810;48.800;9.086;2022-12-18T05:41:00;98772.81;;;-8.82;77.57
71938;BME280;59810;48.800;9.086;2022-12-18T05:43:27;98771.72;;;-8.78;77.64
71938;BME280;59810;48.800;9.086;2022-12-18T05:45:53;98778.22;;;-8.71;76.79
71938;BME280;59810;48.800;9.086;2022-12-18T05:48:19;98778.00;;;-8.68;77.51
71938;BME280;59810;48.800;9.086;2022-12-18T05:50:46;98760.38;;;-8.79;77.32
71938;BME280;59810;48.800;9.086;2022-12-18T05:53:16;98758.25;;;-8.99;77.53
71938;BME280;59810;48.800;9.086;2022-12-18T05:55:43;98758.69;;;-8.92;76.21
71938;BME280;59810;48.800;9.086;2022-12-18T05:58:11;98760.91;;;-9.13;76.61
71938;BME280;59810;48.800;9.086;2022-12-18T06:00:38;98766.97;;;-9.13;76.62
71938;BME280;59810;48.800;9.086;2022-12-18T06:03:08;98759.88;;;-9.11;76.45
71938;BME280;59810;48.800;9.086;2022-12-18T06:05:36;98760.25;;;-9.17;76.09
71938;BME280;59810;48.800;9.086;2022-12-18T06:08:04;98765.28;;;-9.14;76.03
71938;BME280;59810;48.800;9.086;2022-12-18T06:10:30;98770.34;;;-9.11;75.90
71938;BME280;59810;48.800;9.086;2022-12-18T06:12:55;98772.19;;;-9.13;76.09
71938;BME280;59810;48.800;9.086;2022-12-18T06:15:20;98773.34;;;-9.17;75.74
71938;BME280;59810;48.800;9.086;2022-12-18T06:17:49;98764.63;;;-9.30;75.71
71938;BME280;59810;48.800;9.086;2022-12-18T06:20:15;98770.25;;;-9.36;75.11
71938;BME280;59810;48.800;9.086;2022-12-18T06:22:40;98779.47;;;-9.30;76.00
71938;BME280;59810;48.800;9.086;2022-12-18T06:25:06;98773.50;;;-9.32;75.68
71938;BME280;59810;48.800;9.086;2022-12-18T06:27:31;98779.22;;;-9.40;76.76
71938;BME280;59810;48.800;9.086;2022-12-18T06:29:58;98777.38;;;-9.25;76.98
71938;BME280;59810;48.800;9.086;2022-12-18T06:32:24;98778.22;;;-9.25;76.28
71938;BME280;59810;48.800;9.086;2022-12-18T06:34:49;98782.91;;;-9.30;76.53
71938;BME280;59810;48.800;9.086;2022-12-18T06:37:17;98789.88;;;-9.43;75.75
71938;BME280;59810;48.800;9.086;2022-12-18T06:39:42;98790.97;;;-9.47;75.77
71938;BME280;59810;48.800;9.086;2022-12-18T06:42:08;98787.59;;;-9.35;75.82
71938;BME280;59810;48.800;9.086;2022-12-18T06:44:33;98793.22;;;-9.41;76.57
71938;BME280;59810;48.800;9.086;2022-12-18T06:47:00;98789.59;;;-9.53;75.67
71938;BME280;59810;48.800;9.086;2022-12-18T06:49:26;98794.63;;;-9.50;75.65
71938;BME280;59810;48.800;9.086;2022-12-18T06:51:51;98792.84;;;-9.49;76.04
71938;BME280;59810;48.800;9.086;2022-12-18T06:54:17;98780.31;;;-9.44;75.95
71938;BME280;59810;48.800;9.086;2022-12-18T06:56:44;98774.19;;;-9.43;76.61
71938;BME280;59810;48.800;9.086;2022-12-18T06:59:09;98778.38;;;-9.40;76.64
71938;BME280;59810;48.800;9.086;2022-12-18T07:01:35;98789.38;;;-9.35;76.33
71938;BME280;59810;48.800;9.086;2022-12-18T07:04:01;98794.31;;;-9.31;75.71
71938;BME280;59810;48.800;9.086;2022-12-18T07:06:26;98805.81;;;-9.33;75.37
71938;BME280;59810;48.800;9.086;2022-12-18T07:08:53;98811.03;;;-9.33;76.01
71938;BME280;59810;48.800;9.086;2022-12-18T07:11:19;98814.63;;;-9.22;75.67
71938;BME280;59810;48.800;9.086;2022-12-18T07:13:47;98801.50;;;-9.34;76.06
71938;BME280;59810;48.800;9.086;2022-12-18T07:16:15;98808.56;;;-9.22;75.75
71938;BME280;59810;48.800;9.086;2022-12-18T07:18:42;98809.00;;;-9.16;75.72
71938;BME280;59810;48.800;9.086;2022-12-18T07:21:11;98814.84;;;-9.25;75.94
71938;BME280;59810;48.800;9.086;2022-12-18T07:23:37;98818.72;;;-9.18;76.50
71938;BME280;59810;48.800;9.086;2022-12-18T07:26:08;98816.66;;;-9.13;76.24
71938;BME280;59810;48.800;9.086;2022-12-18T07:28:34;98818.09;;;-9.21;76.52
71938;BME280;59810;48.800;9.086;2022-12-18T07:31:14;98823.13;;;-9.18;75.46
71938;BME280;59810;48.800;9.086;2022-12-18T07:33:40;98817.03;;;-9.04;76.58
71938;BME280;59810;48.800;9.086;2022-12-18T07:36:07;98823.53;;;-8.97;76.19
71938;BME280;59810;48.800;9.086;2022-12-18T07:38:33;98816.88;;;-8.89;76.79
71938;BME280;59810;48.800;9.086;2022-12-18T07:41:07;98815.28;;;-8.91;76.33
71938;BME280;59810;48.800;9.086;2022-12-18T07:43:33;98819.38;;;-8.87;76.37
71938;BME280;59810;48.800;9.086;2022-12-18T07:45:59;98823.28;;;-8.80;76.87
71938;BME280;59810;48.800;9.086;2022-12-18T07:48:25;98824.91;;;-8.92;76.96
71938;BME280;59810;48.800;9.086;2022-12-18T07:50:50;98826.00;;;-8.82;77.44
71938;BME280;59810;48.800;9.086;2022-12-18T07:53:16;98832.91;;;-8.81;76.73
71938;BME280;59810;48.800;9.086;2022-12-18T07:55:41;98828.72;;;-8.83;77.96
71938;BME280;59810;48.800;9.086;2022-12-18T07:58:07;98828.66;;;-8.69;78.30
71938;BME280;59810;48.800;9.086;2022-12-18T08:00:33;98833.72;;;-8.53;78.18
71938;BME280;59810;48.800;9.086;2022-12-18T08:02:59;98829.59;;;-8.43;77.59
71938;BME280;59810;48.800;9.086;2022-12-18T08:05:25;98820.38;;;-8.36;78.05
71938;BME280;59810;48.800;9.086;2022-12-18T08:07:50;98822.97;;;-8.23;77.53
71938;BME280;59810;48.800;9.086;2022-12-18T08:10:18;98828.75;;;-8.43;78.73
71938;BME280;59810;48.800;9.086;2022-12-18T08:12:49;98825.06;;;-8.28;78.07
71938;BME280;59810;48.800;9.086;2022-12-18T08:15:15;98837.53;;;-8.19;78.23
71938;BME280;59810;48.800;9.086;2022-12-18T08:17:40;98817.03;;;-8.12;77.66
71938;BME280;59810;48.800;9.086;2022-12-18T08:20:06;98817.88;;;-8.12;78.03
71938;BME280;59810;48.800;9.086;2022-12-18T08:22:34;98821.59;;;-8.16;77.99
71938;BME280;59810;48.800;9.086;2022-12-18T08:25:03;98823.28;;;-8.15;77.97
71938;BME280;59810;48.800;9.086;2022-12-18T08:27:29;98819.22;;;-8.06;78.22
71938;BME280;59810;48.800;9.086;2022-12-18T08:29:55;98827.91;;;-7.93;77.58
71938;BME280;59810;48.800;9.086;2022-12-18T08:32:20;98827.50;;;-7.87;77.77
71938;BME280;59810;48.800;9.086;2022-12-18T08:34:46;98819.97;;;-7.79;77.02
71938;BME280;59810;48.800;9.086;2022-12-18T08:37:11;98818.91;;;-7.76;77.85
71938;BME280;59810;48.800;9.086;2022-12-18T08:39:36;98823.59;;;-7.81;78.42
71938;BME280;59810;48.800;9.086;2022-12-18T08:42:02;98830.13;;;-7.87;77.86
71938;BME280;59810;48.800;9.086;2022-12-18T08:44:46;98826.97;;;-7.67;77.47
71938;BME280;59810;48.800;9.086;2022-12-18T08:47:11;98831.06;;;-7.63;77.81
71938;BME280;59810;48.800;9.086;2022-12-18T08:49:36;98831.03;;;-7.50;77.51
71938;BME280;59810;48.800;9.086;2022-12-18T08:52:02;98837.53;;;-7.56;77.31
71938;BME280;59810;48.800;9.086;2022-12-18T08:54:28;98827.28;;;-7.46;77.47
71938;BME280;59810;48.800;9.086;2022-12-18T08:56:54;98829.03;;;-7.34;77.56
71938;BME280;59810;48.800;9.086;2022-12-18T08:59:19;98816.19;;;-7.26;76.44
71938;BME280;59810;48.800;9.086;2022-12-18T09:01:45;98812.72;;;-7.26;77.72
71938;BME280;59810;48.800;9.086;2022-12-18T09:04:13;98805.78;;;-7.14;76.96
71938;BME280;59810;48.800;9.086;2022-12-18T09:06:39;98806.75;;;-7.15;77.88
71938;BME280;59810;48.800;9.086;2022-12-18T09:09:05;98803.69;;;-7.09;77.56
71938;BME280;59810;48.800;9.086;2022-12-18T09:11:31;98805.84;;;-7.03;77.15
71938;BME280;59810;48.800;9.086;2022-12-18T09:13:58;98817.41;;;-7.06;77.98
71938;BME280;59810;48.800;9.086;2022-12-18T09:16:25;98800.44;;;-6.89;77.14
71938;BME280;59810;48.800;9.086;2022-12-18T09:18:51;98808.38;;;-6.78;76.89
71938;BME280;59810;48.800;9.086;2022-12-18T09:21:20;98800.53;;;-6.67;79.57
71938;BME280;59810;48.800;9.086;2022-12-18T09:23:50;98786.56;;;-6.67;77.88
71938;BME280;59810;48.800;9.086;2022-12-18T09:26:18;98792.09;;;-6.59;77.68
71938;BME280;59810;48.800;9.086;2022-12-18T09:28:44;98788.06;;;-6.52;77.30
71938;BME280;59810;48.800;9.086;2022-12-18T09:31:11;98785.47;;;-6.41;77.61
71938;BME280;59810;48.800;9.086;2022-12-18T09:33:37;98792.16;;;-6.48;78.12
71938;BME280;59810;48.800;9.086;2022-12-18T09:36:04;98796.13;;;-6.31;76.72
71938;BME280;59810;48.800;9.086;2022-12-18T09:38:30;98789.44;;;-6.24;76.99
71938;BME280;59810;48.800;9.086;2022-12-18T09:44:01;98784.50;;;-5.93;78.38
71938;BME280;59810;48.800;9.086;2022-12-18T09:46:32;98789.75;;;-5.82;77.58
71938;BME280;59810;48.800;9.086;2022-12-18T09:49:01;98786.41;;;-5.73;77.07
71938;BME280;59810;48.800;9.086;2022-12-18T09:51:54;98780.19;;;-5.94;78.86
71938;BME280;59810;48.800;9.086;2022-12-18T09:54:29;98774.31;;;-5.76;79.69
71938;BME280;59810;48.800;9.086;2022-12-18T09:56:59;98775.75;;;-5.60;78.00
71938;BME280;59810;48.800;9.086;2022-12-18T09:59:33;98775.66;;;-5.48;77.69
71938;BME280;59810;48.800;9.086;2022-12-18T10:02:17;98778.97;;;-5.35;77.75
71938;BME280;59810;48.800;9.086;2022-12-18T10:04:50;98783.88;;;-5.19;77.04
71938;BME280;59810;48.800;9.086;2022-12-18T10:07:27;98782.41;;;-5.12;78.41
71938;BME280;59810;48.800;9.086;2022-12-18T10:10:14;98781.75;;;-4.93;78.52
71938;BME280;59810;48.800;9.086;2022-12-18T10:27:13;98795.06;;;-4.10;77.36
71938;BME280;59810;48.800;9.086;2022-12-18T10:29:41;98792.78;;;-3.93;77.80
71938;BME280;59810;48.800;9.086;2022-12-18T10:32:07;98788.84;;;-3.78;77.54
71938;BME280;59810;48.800;9.086;2022-12-18T10:34:34;98790.63;;;-3.58;77.64
71938;BME280;59810;48.800;9.086;2022-12-18T10:37:00;98792.78;;;-3.42;76.73
71938;BME280;59810;48.800;9.086;2022-12-18T10:39:26;98788.13;;;-3.19;76.98
71938;BME280;59810;48.800;9.086;2022-12-18T10:42:09;98785.72;;;-3.32;76.01
71938;BME280;59810;48.800;9.086;2022-12-18T10:44:35;98791.63;;;-2.99;76.72
71938;BME280;59810;48.800;9.086;2022-12-18T10:47:05;98784.00;;;-3.02;75.37
71938;BME280;59810;48.800;9.086;2022-12-18T10:49:49;98782.38;;;-2.74;74.58
71938;BME280;59810;48.800;9.086;2022-12-18T10:52:18;98795.19;;;-2.51;73.99
71938;BME280;59810;48.800;9.086;2022-12-18T10:54:52;98791.97;;;-2.35;73.00
71938;BME280;59810;48.800;9.086;2022-12-18T10:59:55;98785.56;;;-2.13;72.88
71938;BME280;59810;48.800;9.086;2022-12-18T11:02:28;98788.06;;;-1.92;72.87
71938;BME280;59810;48.800;9.086;2022-12-18T11:04:56;98780.09;;;-1.82;72.08
71938;BME280;59810;48.800;9.086;2022-12-18T11:07:24;98783.94;;;-1.67;71.69
71938;BME280;59810;48.800;9.086;2022-12-18T11:10:02;98774.50;;;-1.79;71.61
71938;BME280;59810;48.800;9.086;2022-12-18T11:12:28;98769.13;;;-1.50;71.28
71938;BME280;59810;48.800;9.086;2022-12-18T11:14:57;98768.09;;;-1.40;70.99
71938;BME280;59810;48.800;9.086;2022-12-18T11:17:28;98755.22;;;-1.35;70.46
71938;BME280;59810;48.800;9.086;2022-12-18T11:19:57;98757.59;;;-1.32;69.73
71938;BME280;59810;48.800;9.086;2022-12-18T11:22:26;98753.50;;;-0.99;69.82
71938;BME280;59810;48.800;9.086;2022-12-18T11:24:59;98751.72;;;-0.80;69.65
71938;BME280;59810;48.800;9.086;2022-12-18T11:27:30;98750.66;;;-0.87;69.71
71938;BME280;59810;48.800;9.086;2022-12-18T11:32:43;98753.69;;;-0.82;69.20
71938;BME280;59810;48.800;9.086;2022-12-18T11:35:32;98757.25;;;-0.74;69.35
71938;BME280;59810;48.800;9.086;2022-12-18T11:38:06;98754.06;;;-0.77;69.08
71938;BME280;59810;48.800;9.086;2022-12-18T11:40:36;98747.09;;;-0.96;68.95
71938;BME280;59810;48.800;9.086;2022-12-18T11:43:25;98747.13;;;-0.60;67.46
71938;BME280;59810;48.800;9.086;2022-12-18T11:46:08;98737.94;;;-0.66;68.16
71938;BME280;59810;48.800;9.086;2022-12-18T11:48:49;98742.41;;;-0.67;68.11
71938;BME280;59810;48.800;9.086;2022-12-18T11:51:20;98744.50;;;-0.35;66.54
71938;BME280;59810;48.800;9.086;2022-12-18T11:53:48;98752.72;;;-0.28;66.42
71938;BME280;59810;48.800;9.086;2022-12-18T11:56:31;98736.53;;;-0.17;66.02
71938;BME280;59810;48.800;9.086;2022-12-18T12:01:54;98727.16;;;-0.29;67.36
71938;BME280;59810;48.800;9.086;2022-12-18T12:16:13;98709.00;;;-0.16;67.46
71938;BME280;59810;48.800;9.086;2022-12-18T12:21:23;98717.44;;;-0.20;68.03
71938;BME280;59810;48.800;9.086;2022-12-18T12:24:31;98712.84;;;-0.10;67.79
71938;BME280;59810;48.800;9.086;2022-12-18T12:26:56;98713.47;;;-0.16;66.47
71938;BME280;59810;48.800;9.086;2022-12-18T12:32:36;98708.91;;;-0.06;67.15
71938;BME280;59810;48.800;9.086;2022-12-18T12:38:05;98722.31;;;-0.08;67.31
71938;BME280;59810;48.800;9.086;2022-12-18T12:40:36;98725.91;;;-0.17;67.73
71938;BME280;59810;48.800;9.086;2022-12-18T12:43:41;98721.47;;;0.10;66.42
71938;BME280;59810;48.800;9.086;2022-12-18T12:46:13;98717.47;;;0.06;66.84
71938;BME280;59810;48.800;9.086;2022-12-18T12:51:16;98732.78;;;-0.06;69.05
71938;BME280;59810;48.800;9.086;2022-12-18T12:53:42;98742.41;;;-0.05;67.66
71938;BME280;59810;48.800;9.086;2022-12-18T12:56:11;98741.84;;;-0.35;68.26
71938;BME280;59810;48.800;9.086;2022-12-18T12:59:02;98730.88;;;0.04;67.42
71938;BME280;59810;48.800;9.086;2022-12-18T13:01:51;98731.28;;;0.17;67.05
71938;BME280;59810;48.800;9.086;2022-12-18T13:09:34;98741.72;;;0.11;67.15
71938;BME280;59810;48.800;9.086;2022-12-18T13:12:17;98738.78;;;0.22;66.97
71938;BME280;59810;48.800;9.086;2022-12-18T13:23:01;98740.72;;;0.38;66.04
71938;BME280;59810;48.800;9.086;2022-12-18T13:25:34;98730.44;;;0.43;66.02
71938;BME280;59810;48.800;9.086;2022-12-18T13:28:05;98720.63;;;0.35;66.53
71938;BME280;59810;48.800;9.086;2022-12-18T13:36:09;98721.97;;;0.13;66.97
71938;BME280;59810;48.800;9.086;2022-12-18T13:41:00;98711.34;;;-0.13;67.43
71938;BME280;59810;48.800;9.086;2022-12-18T13:43:29;98710.69;;;-0.15;67.50
71938;BME280;59810;48.800;9.086;2022-12-18T13:48:32;98721.19;;;-0.31;68.03
71938;BME280;59810;48.800;9.086;2022-12-18T13:51:10;98710.25;;;-0.28;67.72
71938;BME280;59810;48.800;9.086;2022-12-18T13:53:44;98702.19;;;-0.18;67.93
71938;BME280;59810;48.800;9.086;2022-12-18T13:56:16;98693.91;;;-0.15;67.47
71938;BME280;59810;48.800;9.086;2022-12-18T13:58:42;98703.50;;;-0.40;68.39
71938;BME280;59810;48.800;9.086;2022-12-18T14:01:22;98716.13;;;-0.16;67.32
71938;BME280;59810;48.800;9.086;2022-12-18T14:03:48;98713.44;;;-0.24;67.09
71938;BME280;59810;48.800;9.086;2022-12-18T14:06:16;98722.59;;;-0.37;67.10
71938;BME280;59810;48.800;9.086;2022-12-18T14:08:45;98717.03;;;-0.69;67.27
71938;BME280;59810;48.800;9.086;2022-12-18T14:11:21;98715.50;;;-0.72;67.40
71938;BME280;59810;48.800;9.086;2022-12-18T14:13:49;98719.59;;;-0.77;68.13
71938;BME280;59810;48.800;9.086;2022-12-18T14:16:16;98709.97;;;-0.78;67.47
71938;BME280;59810;48.800;9.086;2022-12-18T14:18:53;98720.75;;;-0.98;67.49
71938;BME280;59810;48.800;9.086;2022-12-18T14:21:26;98723.50;;;-1.17;68.39
71938;BME280;59810;48.800;9.086;2022-12-18T14:24:12;98721.25;;;-1.12;69.21
71938;BME280;59810;48.800;9.086;2022-12-18T14:26:42;98723.13;;;-1.04;69.33
71938;BME280;59810;48.800;9.086;2022-12-18T14:29:18;98723.50;;;-1.17;69.83
71938;BME280;59810;48.800;9.086;2022-12-18T14:31:45;98719.88;;;-1.16;69.90
71938;BME280;59810;48.800;9.086;2022-12-18T14:34:17;98726.00;;;-1.15;69.91
71938;BME280;59810;48.800;9.086;2022-12-18T14:36:52;98729.50;;;-1.15;70.97
71938;BME280;59810;48.800;9.086;2022-12-18T14:39:18;98723.44;;;-1.07;70.03
71938;BME280;59810;48.800;9.086;2022-12-18T14:41:44;98728.34;;;-1.12;70.11
71938;BME280;59810;48.800;9.086;2022-12-18T14:44:12;98734.69;;;-1.23;70.72
71938;BME280;59810;48.800;9.086;2022-12-18T14:46:42;98733.63;;;-0.85;86.35
71938;BME280;59810;48.800;9.086;2022-12-18T14:49:24;98728.97;;;-0.04;92.26
71938;BME280;59810;48.800;9.086;2022-12-18T14:51:56;98727.47;;;0.46;89.34
71938;BME280;59810;48.800;9.086;2022-12-18T14:54:23;98728.19;;;0.98;78.50
71938;BME280;59810;48.800;9.086;2022-12-18T14:56:57;98724.81;;;0.46;67.11
71938;BME280;59810;48.800;9.086;2022-12-18T14:59:26;98724.47;;;0.15;67.58